createdAt,value
2022-08-21T00:01:36.158Z,97314.47
2022-08-21T00:04:09.609Z,97315.91
2022-08-21T00:06:37.021Z,97309.94
2022-08-21T00:09:06.659Z,97316.44
2022-08-21T00:11:36.074Z,97311.53
2022-08-21T00:14:04.092Z,97301.09
2022-08-21T00:16:30.640Z,97308.44
2022-08-21T00:18:57.225Z,97309.84
2022-08-21T00:21:23.829Z,97303.13
2022-08-21T00:23:50.395Z,97304.75
2022-08-21T00:26:16.918Z,97299.59
2022-08-21T00:28:43.959Z,97298.38
2022-08-21T00:31:10.554Z,97307.94
2022-08-21T00:33:37.106Z,97299.16
2022-08-21T00:36:04.217Z,97302.00
2022-08-21T00:38:31.222Z,97294.25
2022-08-21T00:40:59.607Z,97290.38
2022-08-21T00:43:31.986Z,97286.47
2022-08-21T00:45:59.168Z,97275.88
2022-08-21T00:48:26.116Z,97289.72
2022-08-21T00:50:55.695Z,97288.06
2022-08-21T00:53:23.475Z,97288.06
2022-08-21T00:55:50.520Z,97284.59
2022-08-21T00:58:17.700Z,97282.75
2022-08-21T01:00:48.482Z,97281.97
2022-08-21T01:03:19.315Z,97284.44
2022-08-21T01:05:50.307Z,97285.03
2022-08-21T01:08:18.532Z,97288.03
2022-08-21T01:10:45.634Z,97289.78
2022-08-21T01:13:15.134Z,97285.13
2022-08-21T01:15:45.677Z,97279.22
2022-08-21T01:18:13.377Z,97282.25
2022-08-21T01:20:44.223Z,97283.44
2022-08-21T01:23:13.311Z,97283.81
2022-08-21T01:25:39.887Z,97279.34
2022-08-21T01:28:13.043Z,97276.06
2022-08-21T01:30:40.790Z,97272.81
2022-08-21T01:33:07.441Z,97278.44
2022-08-21T01:35:34.180Z,97280.94
2022-08-21T01:38:00.762Z,97275.16
2022-08-21T01:40:27.791Z,97280.00
2022-08-21T01:42:54.396Z,97284.69
2022-08-21T01:45:21.436Z,97292.09
2022-08-21T01:47:48.131Z,97291.28
2022-08-21T01:50:17.771Z,97281.41
2022-08-21T01:52:44.431Z,97270.63
2022-08-21T01:55:12.054Z,97282.09
2022-08-21T01:57:38.846Z,97285.44
2022-08-21T02:00:09.604Z,97277.97
2022-08-21T02:02:36.140Z,97268.44
2022-08-21T02:05:02.788Z,97284.00
2022-08-21T02:07:29.315Z,97280.22
2022-08-21T02:09:55.875Z,97283.31
2022-08-21T02:12:22.645Z,97280.09
2022-08-21T02:14:49.202Z,97284.16
2022-08-21T02:17:15.744Z,97266.25
2022-08-21T02:19:42.322Z,97267.09
2022-08-21T02:22:11.923Z,97273.47
2022-08-21T02:24:54.639Z,97263.69
2022-08-21T02:27:27.267Z,97267.97
2022-08-21T02:29:56.718Z,97270.19
2022-08-21T02:32:23.323Z,97266.75
2022-08-21T02:34:49.992Z,97262.66
2022-08-21T02:37:16.667Z,97265.31
2022-08-21T02:39:43.332Z,97256.16
2022-08-21T02:42:09.947Z,97261.47
2022-08-21T02:44:36.517Z,97262.09
2022-08-21T02:47:03.058Z,97250.44
2022-08-21T02:49:29.607Z,97252.09
2022-08-21T02:51:56.131Z,97252.50
2022-08-21T02:54:22.672Z,97246.59
2022-08-21T02:56:49.379Z,97242.72
2022-08-21T02:59:15.966Z,97247.66
2022-08-21T03:01:42.558Z,97245.00
2022-08-21T03:04:09.136Z,97249.25
2022-08-21T03:06:35.679Z,97236.19
2022-08-21T03:09:02.233Z,97240.88
2022-08-21T03:11:29.478Z,97237.59
2022-08-21T03:13:55.986Z,97232.69
2022-08-21T03:16:22.558Z,97234.91
2022-08-21T03:18:49.098Z,97234.06
2022-08-21T03:21:15.694Z,97233.03
2022-08-21T03:23:43.025Z,97242.38
2022-08-21T03:26:11.759Z,97244.59
2022-08-21T03:28:38.500Z,97247.44
2022-08-21T03:31:06.627Z,97244.19
2022-08-21T03:33:33.453Z,97234.81
2022-08-21T03:36:06.965Z,97240.09
2022-08-21T03:38:34.555Z,97245.19
2022-08-21T03:41:01.660Z,97245.81
2022-08-21T03:43:32.169Z,97249.06
2022-08-21T03:45:59.872Z,97237.88
2022-08-21T03:48:26.418Z,97238.91
2022-08-21T03:50:53.994Z,97244.00
2022-08-21T03:53:20.568Z,97246.50
2022-08-21T03:55:48.451Z,97247.34
2022-08-21T03:58:20.215Z,97246.78
2022-08-21T04:00:48.935Z,97242.50
2022-08-21T04:03:15.684Z,97240.88
2022-08-21T04:05:42.540Z,97251.03
2022-08-21T04:08:09.509Z,97257.94
2022-08-21T04:10:38.439Z,97257.28
2022-08-21T04:13:06.313Z,97253.97
2022-08-21T04:15:32.871Z,97248.31
2022-08-21T04:18:00.006Z,97257.63
2022-08-21T04:20:27.255Z,97252.75
2022-08-21T04:22:54.050Z,97260.47
2022-08-21T04:25:22.419Z,97255.78
2022-08-21T04:27:48.995Z,97263.94
2022-08-21T04:30:16.290Z,97265.75
2022-08-21T04:32:45.417Z,97264.53
2022-08-21T04:35:12.856Z,97258.78
2022-08-21T04:37:41.622Z,97263.84
2022-08-21T04:40:11.177Z,97267.31
2022-08-21T04:42:50.283Z,97260.59
2022-08-21T04:45:23.053Z,97267.78
2022-08-21T04:47:52.727Z,97266.53
2022-08-21T04:50:23.789Z,97271.38
2022-08-21T04:52:50.337Z,97267.28
2022-08-21T04:55:18.096Z,97275.41
2022-08-21T04:57:49.060Z,97273.16
2022-08-21T05:00:16.467Z,97276.63
2022-08-21T05:02:43.025Z,97277.00
2022-08-21T05:05:09.700Z,97279.00
2022-08-21T05:07:42.675Z,97276.38
2022-08-21T05:10:10.417Z,97281.09
2022-08-21T05:12:40.472Z,97264.97
2022-08-21T05:15:07.437Z,97277.19
2022-08-21T05:17:39.981Z,97283.47
2022-08-21T05:20:06.892Z,97287.00
2022-08-21T05:22:33.510Z,97288.38
2022-08-21T05:25:00.045Z,97280.84
2022-08-21T05:27:27.821Z,97284.50
2022-08-21T05:29:54.637Z,97285.91
2022-08-21T05:32:21.941Z,97283.88
2022-08-21T05:34:48.491Z,97282.25
2022-08-21T05:37:15.067Z,97287.97
2022-08-21T05:40:20.738Z,97288.84
2022-08-21T05:42:28.899Z,97283.97
2022-08-21T05:44:55.453Z,97283.00
2022-08-21T05:47:21.990Z,97285.69
2022-08-21T05:49:48.517Z,97286.94
2022-08-21T05:52:20.690Z,97290.69
2022-08-21T05:54:47.299Z,97291.75
2022-08-21T05:57:15.009Z,97284.88
2022-08-21T05:59:41.766Z,97285.16
2022-08-21T06:02:09.270Z,97285.81
2022-08-21T06:04:40.048Z,97287.75
2022-08-21T06:07:07.071Z,97284.94
2022-08-21T06:09:34.255Z,97290.44
2022-08-21T06:12:10.866Z,97274.09
2022-08-21T06:14:38.831Z,97285.91
2022-08-21T06:17:06.844Z,97281.97
2022-08-21T06:19:33.715Z,97282.75
2022-08-21T06:22:00.267Z,97289.41
2022-08-21T06:24:27.823Z,97290.72
2022-08-21T06:26:54.671Z,97286.91
2022-08-21T06:29:22.085Z,97288.97
2022-08-21T06:31:49.305Z,97289.94
2022-08-21T06:34:16.828Z,97283.28
2022-08-21T06:36:43.398Z,97280.47
2022-08-21T06:39:16.654Z,97287.19
2022-08-21T06:41:52.296Z,97266.44
2022-08-21T06:44:19.969Z,97273.19
2022-08-21T06:46:46.548Z,97268.44
2022-08-21T06:49:21.292Z,97270.81
2022-08-21T06:51:48.309Z,97268.56
2022-08-21T06:54:14.923Z,97274.91
2022-08-21T06:56:41.745Z,97270.91
2022-08-21T06:59:08.420Z,97262.94
2022-08-21T07:01:35.006Z,97261.81
2022-08-21T07:04:01.601Z,97263.03
2022-08-21T07:06:28.146Z,97259.47
2022-08-21T07:08:55.703Z,97261.41
2022-08-21T07:11:26.285Z,97268.84
2022-08-21T07:13:55.084Z,97266.63
2022-08-21T07:16:22.694Z,97267.66
2022-08-21T07:18:50.448Z,97257.84
2022-08-21T07:21:17.691Z,97256.84
2022-08-21T07:23:47.475Z,97258.94
2022-08-21T07:26:16.635Z,97263.19
2022-08-21T07:28:44.681Z,97258.94
2022-08-21T07:31:14.713Z,97255.50
2022-08-21T07:33:42.300Z,97252.53
2022-08-21T07:36:09.628Z,97256.06
2022-08-21T07:38:36.492Z,97251.97
2022-08-21T07:41:08.318Z,97252.78
2022-08-21T07:43:34.858Z,97265.59
2022-08-21T07:46:01.490Z,97252.28
2022-08-21T07:48:28.081Z,97257.19
2022-08-21T07:50:56.152Z,97256.81
2022-08-21T07:53:22.943Z,97258.16
2022-08-21T07:55:49.459Z,97267.84
2022-08-21T07:58:15.999Z,97258.28
2022-08-21T08:00:42.647Z,97254.59
2022-08-21T08:03:09.506Z,97258.44
2022-08-21T08:05:38.367Z,97260.22
2022-08-21T08:08:04.949Z,97254.94
2022-08-21T08:10:31.655Z,97254.88
2022-08-21T08:12:58.598Z,97252.84
2022-08-21T08:15:27.602Z,97251.00
2022-08-21T08:17:55.866Z,97253.38
2022-08-21T08:20:23.875Z,97249.09
2022-08-21T08:22:51.073Z,97259.94
2022-08-21T08:25:19.370Z,97254.47
2022-08-21T08:27:45.910Z,97255.41
2022-08-21T08:30:14.510Z,97258.75
2022-08-21T08:32:41.884Z,97253.50
2022-08-21T08:35:09.782Z,97252.03
2022-08-21T08:37:38.666Z,97254.84
2022-08-21T08:40:12.555Z,97251.63
2022-08-21T08:42:39.462Z,97242.38
2022-08-21T08:45:07.927Z,97247.19
2022-08-21T08:47:38.726Z,97240.59
2022-08-21T08:50:40.017Z,97247.19
2022-08-21T08:53:12.150Z,97242.63
2022-08-21T08:55:41.258Z,97244.94
2022-08-21T08:58:10.264Z,97244.63
2022-08-21T09:00:39.521Z,97249.38
2022-08-21T09:03:06.156Z,97242.69
2022-08-21T09:06:17.358Z,97257.25
2022-08-21T09:08:50.589Z,97242.66
2022-08-21T09:11:24.780Z,97254.56
2022-08-21T09:14:13.152Z,97241.06
2022-08-21T09:16:48.923Z,97241.59
2022-08-21T09:19:42.855Z,97237.25
2022-08-21T09:23:00.144Z,97227.78
2022-08-21T09:25:29.365Z,97228.56
2022-08-21T09:27:56.331Z,97224.25
2022-08-21T09:30:33.118Z,97231.22
2022-08-21T09:33:00.707Z,97233.28
2022-08-21T09:35:27.701Z,97228.03
2022-08-21T09:38:08.242Z,97227.09
2022-08-21T09:40:41.329Z,97226.13
2022-08-21T09:43:28.451Z,97225.44
2022-08-21T09:46:22.332Z,97235.06
2022-08-21T09:48:51.823Z,97221.41
2022-08-21T09:51:26.827Z,97210.72
2022-08-21T09:54:15.253Z,97211.06
2022-08-21T09:57:19.123Z,97211.03
2022-08-21T09:59:46.943Z,97211.09
2022-08-21T10:02:30.414Z,97203.75
2022-08-21T10:05:24.840Z,97213.34
2022-08-21T10:07:52.217Z,97210.16
2022-08-21T10:10:20.140Z,97207.72
2022-08-21T10:12:59.084Z,97198.91
2022-08-21T10:16:02.148Z,97198.69
2022-08-21T10:18:43.261Z,97199.75
2022-08-21T10:21:12.007Z,97199.59
2022-08-21T10:23:38.816Z,97189.50
2022-08-21T10:26:17.707Z,97190.50
2022-08-21T10:29:04.771Z,97195.91
2022-08-21T10:31:53.857Z,97187.06
2022-08-21T10:34:23.345Z,97176.28
2022-08-21T10:37:20.206Z,97181.44
2022-08-21T10:40:10.982Z,97178.38
2022-08-21T10:43:09.878Z,97171.91
2022-08-21T10:45:46.839Z,97171.53
2022-08-21T10:48:25.989Z,97177.09
2022-08-21T10:50:57.127Z,97168.91
2022-08-21T10:53:26.591Z,97176.75
2022-08-21T10:56:02.114Z,97165.06
2022-08-21T10:58:37.627Z,97165.16
2022-08-21T11:01:19.409Z,97162.44
2022-08-21T11:03:52.283Z,97161.94
2022-08-21T11:06:23.299Z,97163.97
2022-08-21T11:08:55.319Z,97161.22
2022-08-21T11:11:33.860Z,97154.84
2022-08-21T11:14:09.736Z,97147.53
2022-08-21T11:16:46.471Z,97158.09
2022-08-21T11:19:40.506Z,97158.53
2022-08-21T11:22:14.726Z,97160.78
2022-08-21T11:24:53.473Z,97164.75
2022-08-21T11:27:35.246Z,97158.78
2022-08-21T11:30:02.350Z,97155.44
2022-08-21T11:32:28.859Z,97154.47
2022-08-21T11:35:05.753Z,97147.44
2022-08-21T11:37:47.981Z,97149.91
2022-08-21T11:40:23.575Z,97145.22
2022-08-21T11:42:56.190Z,97138.09
2022-08-21T11:45:44.360Z,97148.75
2022-08-21T11:48:16.964Z,97158.63
2022-08-21T11:50:45.163Z,97150.78
2022-08-21T11:53:17.781Z,97154.66
2022-08-21T11:55:53.064Z,97144.81
2022-08-21T11:58:29.217Z,97150.22
2022-08-21T12:00:59.986Z,97152.06
2022-08-21T12:03:28.075Z,97162.59
2022-08-21T12:05:58.278Z,97147.56
2022-08-21T12:08:36.927Z,97146.41
2022-08-21T12:11:10.232Z,97141.25
2022-08-21T12:13:53.816Z,97151.31
2022-08-21T12:16:33.431Z,97142.84
2022-08-21T12:19:04.016Z,97150.31
2022-08-21T12:21:30.693Z,97135.25
2022-08-21T12:24:15.215Z,97135.38
2022-08-21T12:26:54.910Z,97143.66
2022-08-21T12:29:27.402Z,97138.94
2022-08-21T12:31:55.692Z,97134.91
2022-08-21T12:34:25.980Z,97151.34
2022-08-21T12:37:00.501Z,97140.63
2022-08-21T12:39:29.251Z,97120.63
2022-08-21T12:42:07.363Z,97133.16
2022-08-21T12:44:42.191Z,97137.75
2022-08-21T12:47:32.870Z,97134.78
2022-08-21T12:50:06.401Z,97130.91
2022-08-21T12:52:41.369Z,97134.06
2022-08-21T12:55:30.540Z,97131.75
2022-08-21T12:57:57.101Z,97129.28
2022-08-21T13:00:28.578Z,97129.06
2022-08-21T13:02:56.302Z,97140.19
2022-08-21T13:05:35.150Z,97140.94
2022-08-21T13:08:06.041Z,97144.59
2022-08-21T13:10:34.146Z,97136.97
2022-08-21T13:13:13.015Z,97135.81
2022-08-21T13:15:41.407Z,97139.19
2022-08-21T13:18:22.313Z,97124.88
2022-08-21T13:20:49.623Z,97129.34
2022-08-21T13:23:34.315Z,97128.00
2022-08-21T13:26:00.983Z,97120.63
2022-08-21T13:28:34.554Z,97131.38
2022-08-21T13:31:02.540Z,97128.25
2022-08-21T13:33:34.857Z,97123.09
2022-08-21T13:36:10.546Z,97124.44
2022-08-21T13:38:38.296Z,97117.25
2022-08-21T13:41:14.592Z,97121.41
2022-08-21T13:43:46.373Z,97111.78
2022-08-21T13:46:14.536Z,97110.50
2022-08-21T13:48:41.510Z,97118.00
2022-08-21T13:51:08.210Z,97112.69
2022-08-21T13:53:47.489Z,97120.13
2022-08-21T13:56:43.243Z,97116.91
2022-08-21T13:59:09.884Z,97107.88
2022-08-21T14:01:59.891Z,97121.56
2022-08-21T14:04:34.793Z,97123.63
2022-08-21T14:07:01.954Z,97110.59
2022-08-21T14:09:43.848Z,97115.31
2022-08-21T14:12:44.650Z,97112.41
2022-08-21T14:15:14.800Z,97117.47
2022-08-21T14:17:42.633Z,97111.31
2022-08-21T14:20:14.548Z,97107.50
2022-08-21T14:22:49.782Z,97107.06
2022-08-21T14:25:28.695Z,97113.72
2022-08-21T14:28:27.200Z,97105.75
2022-08-21T14:30:55.047Z,97111.00
2022-08-21T14:33:33.230Z,97108.28
2022-08-21T14:36:00.154Z,97112.50
2022-08-21T14:38:28.526Z,97107.97
2022-08-21T14:41:01.482Z,97116.97
2022-08-21T14:43:28.995Z,97107.75
2022-08-21T14:45:56.382Z,97105.97
2022-08-21T14:48:23.012Z,97111.59
2022-08-21T14:50:49.535Z,97101.19
2022-08-21T14:53:16.218Z,97113.13
2022-08-21T14:56:01.300Z,97112.91
2022-08-21T14:58:27.895Z,97116.09
2022-08-21T15:00:55.525Z,97110.22
2022-08-21T15:03:25.441Z,97111.50
2022-08-21T15:05:52.283Z,97102.59
2022-08-21T15:08:19.149Z,97112.66
2022-08-21T15:11:10.173Z,97105.44
2022-08-21T15:13:33.057Z,97113.53
2022-08-21T15:15:59.739Z,97105.63
2022-08-21T15:18:27.805Z,97110.50
2022-08-21T15:20:54.641Z,97105.03
2022-08-21T15:23:21.684Z,97097.63
2022-08-21T15:25:49.757Z,97095.38
2022-08-21T15:28:17.627Z,97111.63
2022-08-21T15:30:45.283Z,97102.25
2022-08-21T15:33:11.886Z,97099.09
2022-08-21T15:35:38.767Z,97097.72
2022-08-21T15:38:11.243Z,97100.63
2022-08-21T15:40:39.202Z,97106.72
2022-08-21T15:43:06.236Z,97087.88
2022-08-21T15:45:34.286Z,97100.56
2022-08-21T15:48:01.807Z,97101.88
2022-08-21T15:50:29.582Z,97099.16
2022-08-21T15:52:56.186Z,97093.78
2022-08-21T15:55:23.835Z,97089.81
2022-08-21T15:57:57.208Z,97092.44
2022-08-21T16:00:25.320Z,97092.03
2022-08-21T16:02:54.991Z,97088.50
2022-08-21T16:05:22.879Z,97086.66
2022-08-21T16:07:50.387Z,97084.13
2022-08-21T16:10:19.428Z,97094.59
2022-08-21T16:12:49.392Z,97095.22
2022-08-21T16:15:20.518Z,97095.97
2022-08-21T16:17:51.108Z,97094.47
2022-08-21T16:20:25.373Z,97093.47
2022-08-21T16:22:53.701Z,97092.19
2022-08-21T16:25:20.404Z,97100.13
2022-08-21T16:27:50.434Z,97088.06
2022-08-21T16:30:18.877Z,97094.25
2022-08-21T16:32:45.822Z,97079.72
2022-08-21T16:35:15.214Z,97092.94
2022-08-21T16:37:42.218Z,97089.44
2022-08-21T16:40:10.442Z,97091.63
2022-08-21T16:42:38.901Z,97092.19
2022-08-21T16:45:17.126Z,97092.22
2022-08-21T16:47:44.766Z,97087.91
2022-08-21T16:50:15.761Z,97091.13
2022-08-21T16:52:42.177Z,97086.28
2022-08-21T16:55:09.464Z,97085.25
2022-08-21T16:57:36.915Z,97090.66
2022-08-21T17:00:08.785Z,97086.88
2022-08-21T17:02:40.991Z,97097.94
2022-08-21T17:05:08.358Z,97104.69
2022-08-21T17:07:40.888Z,97090.69
2022-08-21T17:10:08.434Z,97094.97
2022-08-21T17:12:35.707Z,97094.69
2022-08-21T17:15:08.324Z,97093.81
2022-08-21T17:17:35.335Z,97096.22
2022-08-21T17:20:01.976Z,97092.69
2022-08-21T17:22:28.665Z,97084.56
2022-08-21T17:24:55.203Z,97092.03
2022-08-21T17:27:26.854Z,97091.44
2022-08-21T17:29:54.626Z,97099.47
2022-08-21T17:32:21.767Z,97098.06
2022-08-21T17:34:48.445Z,97096.09
2022-08-21T17:37:15.487Z,97093.81
2022-08-21T17:39:42.142Z,97092.44
2022-08-21T17:42:11.864Z,97094.81
2022-08-21T17:44:40.378Z,97091.81
2022-08-21T17:47:07.660Z,97089.97
2022-08-21T17:49:34.387Z,97104.41
2022-08-21T17:52:00.970Z,97096.81
2022-08-21T17:54:27.955Z,97100.06
2022-08-21T17:56:55.879Z,97106.41
2022-08-21T17:59:24.056Z,97105.81
2022-08-21T18:01:51.037Z,97104.97
2022-08-21T18:04:17.873Z,97115.72
2022-08-21T18:06:44.940Z,97109.97
2022-08-21T18:09:12.835Z,97110.44
2022-08-21T18:11:40.555Z,97126.94
2022-08-21T18:14:07.991Z,97127.63
2022-08-21T18:16:36.019Z,97126.19
2022-08-21T18:19:06.656Z,97126.06
2022-08-21T18:21:33.198Z,97126.78
2022-08-21T18:23:59.795Z,97135.88
2022-08-21T18:26:37.991Z,97133.63
2022-08-21T18:29:07.085Z,97135.13
2022-08-21T18:31:35.501Z,97139.78
2022-08-21T18:34:08.109Z,97131.78
2022-08-21T18:36:34.661Z,97135.44
2022-08-21T18:39:25.598Z,97142.97
2022-08-21T18:41:49.598Z,97143.97
2022-08-21T18:44:20.400Z,97151.75
2022-08-21T18:46:51.648Z,97143.41
2022-08-21T18:49:18.724Z,97142.66
2022-08-21T18:51:45.983Z,97150.16
2022-08-21T18:54:14.247Z,97151.91
2022-08-21T18:56:41.701Z,97151.72
2022-08-21T18:59:10.203Z,97155.34
2022-08-21T19:01:37.295Z,97159.19
2022-08-21T19:04:05.032Z,97164.22
2022-08-21T19:06:38.546Z,97161.53
2022-08-21T19:09:10.107Z,97161.81
2022-08-21T19:11:39.138Z,97161.63
2022-08-21T19:16:58.845Z,97169.06
2022-08-21T19:19:25.666Z,97173.38
2022-08-21T19:21:52.195Z,97164.56
2022-08-21T19:24:23.203Z,97166.84
2022-08-21T19:26:50.438Z,97168.03
2022-08-21T19:29:34.740Z,97171.75
2022-08-21T19:32:04.771Z,97174.03
2022-08-21T19:34:31.695Z,97175.31
2022-08-21T19:36:59.403Z,97179.97
2022-08-21T19:39:26.783Z,97171.63
2022-08-21T19:41:56.607Z,97180.06
2022-08-21T19:44:25.981Z,97179.59
2022-08-21T19:46:54.436Z,97175.28
2022-08-21T19:49:23.320Z,97182.94
2022-08-21T19:51:51.590Z,97170.00
2022-08-21T19:54:23.644Z,97179.63
2022-08-21T19:56:52.818Z,97184.75
2022-08-21T19:59:24.663Z,97177.44
2022-08-21T20:01:51.739Z,97178.19
2022-08-21T20:04:19.349Z,97182.69
2022-08-21T20:06:47.213Z,97191.16
2022-08-21T20:09:14.664Z,97189.97
2022-08-21T20:11:44.482Z,97182.63
2022-08-21T20:14:14.096Z,97187.72
2022-08-21T20:19:27.752Z,97179.34
2022-08-21T20:21:58.502Z,97184.81
2022-08-21T20:24:27.423Z,97180.38
2022-08-21T20:26:54.960Z,97190.88
2022-08-21T20:29:24.172Z,97188.50
2022-08-21T20:31:58.788Z,97187.13
2022-08-21T20:37:12.167Z,97195.75
2022-08-21T20:39:38.806Z,97193.69
2022-08-21T20:42:08.870Z,97183.84
2022-08-21T20:44:36.545Z,97185.53
2022-08-21T20:47:09.000Z,97186.50
2022-08-21T20:49:42.137Z,97187.94
2022-08-21T20:52:09.350Z,97182.22
2022-08-21T20:54:44.269Z,97190.41
2022-08-21T20:57:18.656Z,97186.34
2022-08-21T20:59:47.319Z,97199.81
2022-08-21T21:02:16.356Z,97191.00
2022-08-21T21:05:09.055Z,97188.97
2022-08-21T21:07:48.479Z,97202.50
2022-08-21T21:10:23.993Z,97199.25
2022-08-21T21:12:56.798Z,97191.69
2022-08-21T21:15:28.498Z,97189.84
2022-08-21T21:18:02.173Z,97196.38
2022-08-21T21:20:45.824Z,97188.97
2022-08-21T21:23:26.039Z,97179.28
2022-08-21T21:26:30.899Z,97185.41
2022-08-21T21:29:10.788Z,97179.53
2022-08-21T21:31:37.719Z,97191.03
2022-08-21T21:34:04.332Z,97188.63
2022-08-21T21:36:56.457Z,97192.16
2022-08-21T21:39:43.962Z,97196.03
2022-08-21T21:42:35.548Z,97190.91
2022-08-21T21:45:14.225Z,97198.28
2022-08-21T21:48:07.180Z,97191.13
2022-08-21T21:50:48.794Z,97200.94
2022-08-21T21:53:25.235Z,97203.78
2022-08-21T21:56:07.197Z,97200.94
2022-08-21T21:58:39.805Z,97193.53
2022-08-21T22:01:12.509Z,97197.25
2022-08-21T22:04:10.313Z,97197.84
2022-08-21T22:06:51.474Z,97198.53
2022-08-21T22:09:42.406Z,97187.72
2022-08-21T22:12:28.598Z,97188.31
2022-08-21T22:14:55.690Z,97193.78
2022-08-21T22:17:49.260Z,97196.03
2022-08-21T22:20:26.755Z,97187.44
2022-08-21T22:22:55.974Z,97187.44
2022-08-21T22:25:26.991Z,97189.50
2022-08-21T22:27:59.644Z,97188.03
2022-08-21T22:30:38.708Z,97196.84
2022-08-21T22:33:12.647Z,97196.47
2022-08-21T22:35:39.883Z,97190.75
2022-08-21T22:38:27.810Z,97189.19
2022-08-21T22:41:19.099Z,97183.16
2022-08-21T22:44:01.821Z,97191.50
2022-08-21T22:46:58.067Z,97188.69
2022-08-21T22:49:30.281Z,97189.94
2022-08-21T22:52:24.406Z,97188.94
2022-08-21T22:54:53.241Z,97193.88
2022-08-21T22:57:25.107Z,97190.97
2022-08-21T23:00:12.244Z,97192.59
2022-08-21T23:02:56.650Z,97189.72
2022-08-21T23:05:26.205Z,97186.69
2022-08-21T23:07:55.383Z,97180.34
2022-08-21T23:10:26.819Z,97183.44
2022-08-21T23:13:06.327Z,97182.84
2022-08-21T23:15:43.203Z,97189.41
2022-08-21T23:18:17.120Z,97186.97
2022-08-21T23:21:09.935Z,97189.03
2022-08-21T23:23:43.842Z,97194.56
2022-08-21T23:26:12.324Z,97198.09
2022-08-21T23:29:07.957Z,97194.06
2022-08-21T23:31:59.351Z,97190.41
2022-08-21T23:34:32.297Z,97191.00
2022-08-21T23:37:49.228Z,97194.53
2022-08-21T23:40:50.639Z,97184.72
2022-08-21T23:43:29.168Z,97195.72
2022-08-21T23:46:16.279Z,97195.28
2022-08-21T23:49:05.851Z,97189.69
2022-08-21T23:51:44.663Z,97198.28
2022-08-21T23:54:11.156Z,97185.63
2022-08-21T23:57:01.703Z,97198.91
2022-08-21T23:59:40.384Z,97198.91
